Time;durP1;ratioP1;P1;durP2;ratioP2;P2;SDS_P1;SDS_P2;PMS_P1;PMS_P2;Temp;Humidity;BMP_temperature;BMP_pressure;BME280_temperature;BME280_humidity;BME280_pressure;Samples;Min_cycle;Max_cycle;Signal;HPM_P1;HPM_P2
2022/08/13 00:02:10;;;;;;;;;;;;;;;;;;4958911;28;19989;-85
2022/08/13 00:04:35;;;;;;;;;;;;;;;;;;4957942;28;19915;-85
2022/08/13 00:09:26;;;;;;;;;;;;;;;;;;4959307;28;20145;-84
2022/08/13 00:14:35;;;;;;;;;;;;;;;;;;4955778;28;20331;-85
2022/08/13 00:17:00;;;;;;;;;;;;;;;;;;4962376;28;19922;-85
2022/08/13 00:19:30;;;;;;;;;;;;;;;;;;4959652;28;19915;-85
2022/08/13 00:21:55;;;;;;;;;;;;;;;;;;4958146;28;19997;-85
2022/08/13 00:24:20;;;;;;;;;;;;;;;;;;4961082;28;20452;-85
2022/08/13 00:26:45;;;;;;;;;;;;;;;;;;4956187;28;19969;-85
2022/08/13 00:29:10;;;;;;;;;;;;;;;;;;4955129;28;19973;-85
2022/08/13 00:31:37;;;;;;;;;;;;;;;;;;4960407;28;20353;-85
2022/08/13 00:34:02;;;;;;;;;;;;;;;;;;4956615;28;19933;-85
2022/08/13 00:36:30;;;;;;;;;;;;;;;;;;4961170;28;19914;-85
2022/08/13 00:38:55;;;;;;;;;;;;;;;;;;4958548;28;19958;-85
2022/08/13 00:41:39;;;;;;;;;;;;;;;;;;4959732;28;20384;-85
2022/08/13 00:44:04;;;;;;;;;;;;;;;;;;4959306;28;20444;-85
2022/08/13 00:46:29;;;;;;;;;;;;;;;;;;4957840;28;20017;-85
2022/08/13 00:48:54;;;;;;;;;;;;;;;;;;4959445;28;19992;-85
2022/08/13 00:51:20;;;;;;;;;;;;;;;;;;4956968;28;19948;-85
2022/08/13 00:53:45;;;;;;;;;;;;;;;;;;4952612;28;19922;-85
2022/08/13 00:56:11;;;;;;;;;;;;;;;;;;4957346;28;19922;-85
2022/08/13 00:58:36;;;;;;;;;;;;;;;;;;4956501;28;19983;-85
2022/08/13 01:01:01;;;;;;;;;;;;;;;;;;4957678;28;19929;-85
2022/08/13 01:03:26;;;;;;;;;;;;;;;;;;4959130;28;20008;-85
2022/08/13 01:05:52;;;;;;;;;;;;;;;;;;4960792;28;19919;-85
2022/08/13 01:08:19;;;;;;;;;;;;;;;;;;4958469;28;19922;-85
2022/08/13 01:10:44;;;;;;;;;;;;;;;;;;4954865;28;19933;-85
2022/08/13 01:13:11;;;;;;;;;;;;;;;;;;4954796;28;19914;-85
2022/08/13 01:15:36;;;;;;;;;;;;;;;;;;4953833;28;20308;-85
2022/08/13 01:18:01;;;;;;;;;;;;;;;;;;4959422;28;19918;-85
2022/08/13 01:20:26;;;;;;;;;;;;;;;;;;4958335;28;19915;-85
2022/08/13 01:22:52;;;;;;;;;;;;;;;;;;4961926;28;19921;-86
2022/08/13 01:25:17;;;;;;;;;;;;;;;;;;4956199;28;20197;-85
2022/08/13 01:27:42;;;;;;;;;;;;;;;;;;4962041;28;20558;-85
2022/08/13 01:30:09;;;;;;;;;;;;;;;;;;4960161;28;19914;-85
2022/08/13 01:32:35;;;;;;;;;;;;;;;;;;4961710;28;19929;-85
2022/08/13 01:35:00;;;;;;;;;;;;;;;;;;4964078;28;19977;-85
2022/08/13 01:37:25;;;;;;;;;;;;;;;;;;4963013;28;19922;-85
2022/08/13 01:39:52;;;;;;;;;;;;;;;;;;4958972;28;19922;-85
2022/08/13 01:42:20;;;;;;;;;;;;;;;;;;4964978;28;19918;-84
2022/08/13 01:44:45;;;;;;;;;;;;;;;;;;4966437;28;20008;-85
2022/08/13 01:52:38;;;;;;;;;;;;;;;;;;4963681;28;19920;-85
2022/08/13 01:55:04;;;;;;;;;;;;;;;;;;4963658;28;19921;-85
2022/08/13 01:57:33;;;;;;;;;;;;;;;;;;4959944;28;20017;-85
2022/08/13 01:59:58;;;;;;;;;;;;;;;;;;4965044;28;19922;-85
2022/08/13 02:02:27;;;;;;;;;;;;;;;;;;4964661;28;19921;-85
2022/08/13 02:04:53;;;;;;;;;;;;;;;;;;4971448;28;19914;-85
2022/08/13 02:07:18;;;;;;;;;;;;;;;;;;4961701;28;20001;-85
2022/08/13 02:09:43;;;;;;;;;;;;;;;;;;4963539;28;19914;-85
2022/08/13 02:12:08;;;;;;;;;;;;;;;;;;4963799;28;19922;-84
2022/08/13 02:14:33;;;;;;;;;;;;;;;;;;4964799;28;19918;-85
2022/08/13 02:16:59;;;;;;;;;;;;;;;;;;4962067;28;20389;-85
2022/08/13 02:19:24;;;;;;;;;;;;;;;;;;4963518;28;19989;-85
2022/08/13 02:21:51;;;;;;;;;;;;;;;;;;4962466;28;20435;-85
2022/08/13 02:24:16;;;;;;;;;;;;;;;;;;4956259;28;20057;-85
2022/08/13 02:26:42;;;;;;;;;;;;;;;;;;4961479;28;20012;-85
2022/08/13 02:29:08;;;;;;;;;;;;;;;;;;4961723;28;19914;-85
2022/08/13 02:31:34;;;;;;;;;;;;;;;;;;4964076;28;19969;-85
2022/08/13 02:33:59;;;;;;;;;;;;;;;;;;4961959;28;19914;-85
2022/08/13 02:36:24;;;;;;;;;;;;;;;;;;4960108;28;19972;-85
2022/08/13 02:38:52;;;;;;;;;;;;;;;;;;4959545;28;19914;-85
2022/08/13 02:44:00;;;;;;;;;;;;;;;;;;4958149;28;20508;-85
2022/08/13 02:46:26;;;;;;;;;;;;;;;;;;4968174;28;20005;-85
2022/08/13 02:48:52;;;;;;;;;;;;;;;;;;4966419;28;20388;-85
2022/08/13 02:51:20;;;;;;;;;;;;;;;;;;4957656;28;19969;-85
2022/08/13 02:53:45;;;;;;;;;;;;;;;;;;4957324;28;20406;-85
2022/08/13 02:56:10;;;;;;;;;;;;;;;;;;4967687;28;20138;-85
2022/08/13 02:58:45;;;;;;;;;;;;;;;;;;4961344;28;19937;-85
2022/08/13 03:01:11;;;;;;;;;;;;;;;;;;4963503;28;20024;-85
2022/08/13 03:03:36;;;;;;;;;;;;;;;;;;4961581;28;19945;-85
2022/08/13 03:06:02;;;;;;;;;;;;;;;;;;4967801;28;20360;-85
2022/08/13 03:08:27;;;;;;;;;;;;;;;;;;4957259;28;19922;-85
2022/08/13 03:10:53;;;;;;;;;;;;;;;;;;4959731;28;20368;-85
2022/08/13 03:13:18;;;;;;;;;;;;;;;;;;4957085;28;20348;-85
2022/08/13 03:15:44;;;;;;;;;;;;;;;;;;4959185;28;19918;-85
2022/08/13 03:18:09;;;;;;;;;;;;;;;;;;4962676;28;20345;-85
2022/08/13 03:20:34;;;;;;;;;;;;;;;;;;4965326;28;19915;-85
2022/08/13 03:23:01;;;;;;;;;;;;;;;;;;4958787;28;20358;-85
2022/08/13 03:25:26;;;;;;;;;;;;;;;;;;4961514;28;19918;-85
2022/08/13 03:27:51;;;;;;;;;;;;;;;;;;4957030;28;19922;-85
2022/08/13 03:30:16;;;;;;;;;;;;;;;;;;4963784;28;19914;-85
2022/08/13 03:32:41;;;;;;;;;;;;;;;;;;4964307;28;19914;-85
2022/08/13 03:35:06;;;;;;;;;;;;;;;;;;4964742;28;19923;-85
2022/08/13 03:37:34;;;;;;;;;;;;;;;;;;4963966;28;19914;-85
2022/08/13 03:39:59;;;;;;;;;;;;;;;;;;4967597;28;20297;-85
2022/08/13 03:42:25;;;;;;;;;;;;;;;;;;4958370;28;20086;-85
2022/08/13 03:44:50;;;;;;;;;;;;;;;;;;4962642;28;19949;-85
2022/08/13 03:47:15;;;;;;;;;;;;;;;;;;4963698;28;19918;-85
2022/08/13 03:49:40;;;;;;;;;;;;;;;;;;4965873;28;19921;-85
2022/08/13 03:52:05;;;;;;;;;;;;;;;;;;4960996;28;19965;-84
2022/08/13 03:54:30;;;;;;;;;;;;;;;;;;4961038;28;19925;-85
2022/08/13 03:56:56;;;;;;;;;;;;;;;;;;4969480;28;20009;-85
2022/08/13 03:59:21;;;;;;;;;;;;;;;;;;4956183;28;19930;-85
2022/08/13 04:01:49;;;;;;;;;;;;;;;;;;4958364;28;19925;-85
2022/08/13 04:04:16;;;;;;;;;;;;;;;;;;4960729;28;20396;-85
2022/08/13 04:06:41;;;;;;;;;;;;;;;;;;4960495;28;19925;-85
2022/08/13 04:09:06;;;;;;;;;;;;;;;;;;4962351;28;20052;-85
2022/08/13 04:11:31;;;;;;;;;;;;;;;;;;4954023;28;19914;-84
2022/08/13 04:13:56;;;;;;;;;;;;;;;;;;4960922;28;20033;-85
2022/08/13 04:16:21;;;;;;;;;;;;;;;;;;4953108;28;20024;-85
2022/08/13 04:18:47;;;;;;;;;;;;;;;;;;4960943;28;19930;-85
2022/08/13 04:21:12;;;;;;;;;;;;;;;;;;4958360;28;19969;-85
2022/08/13 04:23:39;;;;;;;;;;;;;;;;;;4955861;28;19923;-85
2022/08/13 04:26:04;;;;;;;;;;;;;;;;;;4958688;28;20292;-84
2022/08/13 04:28:29;;;;;;;;;;;;;;;;;;4956916;28;19922;-85
2022/08/13 04:30:54;;;;;;;;;;;;;;;;;;4958645;28;19922;-85
2022/08/13 04:33:20;;;;;;;;;;;;;;;;;;4960590;28;20324;-85
2022/08/13 04:35:45;;;;;;;;;;;;;;;;;;4956098;28;19922;-85
2022/08/13 04:38:10;;;;;;;;;;;;;;;;;;4962115;28;20114;-85
2022/08/13 04:40:35;;;;;;;;;;;;;;;;;;4956913;28;19926;-85
2022/08/13 04:43:00;;;;;;;;;;;;;;;;;;4959525;28;20414;-85
2022/08/13 04:45:25;;;;;;;;;;;;;;;;;;4957923;28;20373;-85
2022/08/13 04:47:51;;;;;;;;;;;;;;;;;;4959752;28;19915;-85
2022/08/13 04:50:16;;;;;;;;;;;;;;;;;;4955434;28;19984;-85
2022/08/13 04:52:41;;;;;;;;;;;;;;;;;;4959827;28;19918;-85
2022/08/13 04:55:06;;;;;;;;;;;;;;;;;;4963147;28;19918;-85
2022/08/13 04:57:32;;;;;;;;;;;;;;;;;;4962785;28;20403;-85
2022/08/13 04:59:57;;;;;;;;;;;;;;;;;;4962120;28;19962;-85
2022/08/13 05:02:23;;;;;;;;;;;;;;;;;;4964794;28;19929;-85
2022/08/13 05:04:48;;;;;;;;;;;;;;;;;;4959366;28;20361;-85
2022/08/13 05:07:15;;;;;;;;;;;;;;;;;;4960005;28;19921;-85
2022/08/13 05:09:40;;;;;;;;;;;;;;;;;;4962942;28;20346;-84
2022/08/13 05:12:06;;;;;;;;;;;;;;;;;;4963125;28;20928;-85
2022/08/13 05:14:31;;;;;;;;;;;;;;;;;;4961344;28;19933;-85
2022/08/13 05:16:56;;;;;;;;;;;;;;;;;;4962281;28;19914;-85
2022/08/13 05:19:22;;;;;;;;;;;;;;;;;;4962033;28;19972;-85
2022/08/13 05:21:48;;;;;;;;;;;;;;;;;;4962219;28;20089;-85
2022/08/13 05:24:13;;;;;;;;;;;;;;;;;;4961971;28;20266;-85
2022/08/13 05:26:38;;;;;;;;;;;;;;;;;;4961233;28;20361;-85
2022/08/13 05:29:05;;;;;;;;;;;;;;;;;;4966520;28;19918;-85
2022/08/13 05:31:30;;;;;;;;;;;;;;;;;;4966123;28;20380;-86
2022/08/13 05:33:56;;;;;;;;;;;;;;;;;;4963942;28;19973;-85
2022/08/13 05:36:22;;;;;;;;;;;;;;;;;;4963836;28;19937;-86
2022/08/13 05:38:48;;;;;;;;;;;;;;;;;;4961356;28;19918;-86
2022/08/13 05:41:16;;;;;;;;;;;;;;;;;;4968078;28;19910;-85
2022/08/13 05:43:41;;;;;;;;;;;;;;;;;;4963603;28;19918;-85
2022/08/13 05:46:08;;;;;;;;;;;;;;;;;;4965239;28;19914;-85
2022/08/13 05:48:33;;;;;;;;;;;;;;;;;;4958316;28;19914;-85
2022/08/13 05:50:59;;;;;;;;;;;;;;;;;;4959315;28;19914;-86
2022/08/13 05:53:24;;;;;;;;;;;;;;;;;;4957423;28;20399;-85
2022/08/13 05:55:50;;;;;;;;;;;;;;;;;;4962331;28;20173;-85
2022/08/13 05:58:15;;;;;;;;;;;;;;;;;;4960944;28;20036;-85
2022/08/13 06:03:27;;;;;;;;;;;;;;;;;;4961416;28;19977;-85
2022/08/13 06:05:56;;;;;;;;;;;;;;;;;;4960518;28;19925;-85
2022/08/13 06:08:21;;;;;;;;;;;;;;;;;;4954994;28;20451;-85
2022/08/13 06:10:46;;;;;;;;;;;;;;;;;;4961473;28;19915;-85
2022/08/13 06:13:13;;;;;;;;;;;;;;;;;;4955781;28;19928;-85
2022/08/13 06:15:38;;;;;;;;;;;;;;;;;;4960878;28;19918;-85
2022/08/13 06:18:03;;;;;;;;;;;;;;;;;;4962271;28;20000;-84
2022/08/13 06:20:29;;;;;;;;;;;;;;;;;;4959147;28;20384;-85
2022/08/13 06:22:56;;;;;;;;;;;;;;;;;;4963189;28;19945;-84
2022/08/13 06:25:22;;;;;;;;;;;;;;;;;;4963655;28;19918;-85
2022/08/13 06:27:47;;;;;;;;;;;;;;;;;;4958816;28;19921;-84
2022/08/13 06:30:12;;;;;;;;;;;;;;;;;;4965100;28;20046;-85
2022/08/13 06:32:37;;;;;;;;;;;;;;;;;;4960287;28;20586;-85
2022/08/13 06:35:04;;;;;;;;;;;;;;;;;;4963413;28;19957;-85
2022/08/13 06:37:30;;;;;;;;;;;;;;;;;;4959562;28;19970;-85
2022/08/13 06:39:55;;;;;;;;;;;;;;;;;;4959551;28;19915;-85
2022/08/13 06:42:20;;;;;;;;;;;;;;;;;;4960511;28;20384;-85
2022/08/13 06:44:45;;;;;;;;;;;;;;;;;;4959981;28;19914;-85
2022/08/13 06:47:11;;;;;;;;;;;;;;;;;;4963202;28;19914;-85
2022/08/13 06:49:37;;;;;;;;;;;;;;;;;;4962378;28;19925;-85
2022/08/13 06:52:02;;;;;;;;;;;;;;;;;;4970957;28;19914;-85
2022/08/13 06:54:27;;;;;;;;;;;;;;;;;;4958000;28;19981;-85
2022/08/13 06:56:53;;;;;;;;;;;;;;;;;;4956512;28;20156;-86
2022/08/13 06:59:19;;;;;;;;;;;;;;;;;;4965533;28;19923;-85
2022/08/13 07:01:44;;;;;;;;;;;;;;;;;;4959349;28;19926;-85
2022/08/13 07:04:12;;;;;;;;;;;;;;;;;;4961002;28;19952;-85
2022/08/13 07:06:37;;;;;;;;;;;;;;;;;;4959251;28;19920;-85
2022/08/13 07:09:02;;;;;;;;;;;;;;;;;;4959605;28;19914;-85
2022/08/13 07:11:27;;;;;;;;;;;;;;;;;;4958144;28;20378;-85
2022/08/13 07:13:52;;;;;;;;;;;;;;;;;;4964583;28;20005;-85
2022/08/13 07:16:18;;;;;;;;;;;;;;;;;;4960147;28;19920;-85
2022/08/13 07:18:46;;;;;;;;;;;;;;;;;;4962694;28;19969;-85
2022/08/13 07:21:11;;;;;;;;;;;;;;;;;;4963004;28;19922;-85
2022/08/13 07:23:37;;;;;;;;;;;;;;;;;;4962186;28;20425;-85
2022/08/13 07:26:02;;;;;;;;;;;;;;;;;;4962065;28;20129;-85
2022/08/13 07:28:27;;;;;;;;;;;;;;;;;;4958610;28;19941;-86
2022/08/13 07:30:53;;;;;;;;;;;;;;;;;;4961545;28;19919;-86
2022/08/13 07:33:18;;;;;;;;;;;;;;;;;;4958982;28;19941;-86
2022/08/13 07:35:43;;;;;;;;;;;;;;;;;;4957741;28;19933;-85
2022/08/13 07:38:09;;;;;;;;;;;;;;;;;;4955947;28;19920;-85
2022/08/13 07:40:34;;;;;;;;;;;;;;;;;;4956016;28;19923;-85
2022/08/13 07:42:59;;;;;;;;;;;;;;;;;;4961101;28;20368;-85
2022/08/13 07:45:24;;;;;;;;;;;;;;;;;;4958780;28;19918;-85
2022/08/13 07:47:54;;;;;;;;;;;;;;;;;;4963071;28;19973;-86
2022/08/13 07:50:19;;;;;;;;;;;;;;;;;;4961344;28;19918;-86
2022/08/13 07:52:52;;;;;;;;;;;;;;;;;;4958530;28;20364;-86
2022/08/13 07:55:18;;;;;;;;;;;;;;;;;;4955047;28;19992;-86
2022/08/13 07:57:46;;;;;;;;;;;;;;;;;;4965381;28;19922;-86
2022/08/13 08:00:24;;;;;;;;;;;;;;;;;;4954261;28;19918;-86
2022/08/13 08:02:49;;;;;;;;;;;;;;;;;;4955846;28;19961;-86
2022/08/13 08:05:14;;;;;;;;;;;;;;;;;;4957967;28;19926;-86
2022/08/13 08:07:39;;;;;;;;;;;;;;;;;;4958431;28;19928;-86
2022/08/13 08:10:06;;;;;;;;;;;;;;;;;;4953364;28;19925;-86
2022/08/13 08:12:35;;;;;;;;;;;;;;;;;;4957015;28;19918;-86
2022/08/13 08:15:00;;;;;;;;;;;;;;;;;;4957166;28;19926;-85
2022/08/13 08:17:26;;;;;;;;;;;;;;;;;;4956551;28;19918;-86
2022/08/13 08:19:53;;;;;;;;;;;;;;;;;;4959669;28;19914;-85
2022/08/13 08:22:18;;;;;;;;;;;;;;;;;;4963481;28;19921;-85
2022/08/13 08:24:47;;;;;;;;;;;;;;;;;;4958395;28;19918;-85
2022/08/13 08:27:13;;;;;;;;;;;;;;;;;;4959397;28;19921;-85
2022/08/13 08:29:38;;;;;;;;;;;;;;;;;;4961013;28;19918;-86
2022/08/13 08:32:07;;;;;;;;;;;;;;;;;;4958714;28;19926;-85
2022/08/13 08:34:33;;;;;;;;;;;;;;;;;;4960152;28;19918;-85
2022/08/13 08:36:58;;;;;;;;;;;;;;;;;;4962904;28;19929;-85
2022/08/13 08:42:40;;;;;;;;;;;;;;;;;;4954488;28;20312;-85
2022/08/13 08:44:58;;;;;;;;;;;;;;;;;;4953145;28;20431;-88
2022/08/13 08:47:24;;;;;;;;;;;;;;;;;;4958017;28;19922;-88
2022/08/13 08:49:49;;;;;;;;;;;;;;;;;;4959140;28;19918;-88
2022/08/13 08:52:14;;;;;;;;;;;;;;;;;;4957562;28;19918;-88
2022/08/13 08:54:40;;;;;;;;;;;;;;;;;;4960366;28;19919;-87
2022/08/13 08:57:05;;;;;;;;;;;;;;;;;;4963137;28;19962;-88
2022/08/13 08:59:32;;;;;;;;;;;;;;;;;;4957555;28;19926;-87
2022/08/13 09:01:57;;;;;;;;;;;;;;;;;;4959226;28;20060;-87
2022/08/13 09:04:25;;;;;;;;;;;;;;;;;;4960750;28;20009;-85
2022/08/13 09:06:52;;;;;;;;;;;;;;;;;;4964157;28;19914;-85
2022/08/13 09:09:17;;;;;;;;;;;;;;;;;;4955253;28;19917;-85
2022/08/13 09:11:42;;;;;;;;;;;;;;;;;;4967360;28;20345;-84
2022/08/13 09:14:08;;;;;;;;;;;;;;;;;;4956188;28;19925;-84
2022/08/13 09:16:33;;;;;;;;;;;;;;;;;;4956930;28;19918;-84
2022/08/13 09:18:58;;;;;;;;;;;;;;;;;;4956249;28;19923;-84
2022/08/13 09:21:25;;;;;;;;;;;;;;;;;;4959321;28;19925;-84
2022/08/13 09:23:50;;;;;;;;;;;;;;;;;;4952575;28;19911;-84
2022/08/13 09:26:17;;;;;;;;;;;;;;;;;;4968592;28;19921;-88
2022/08/13 09:28:42;;;;;;;;;;;;;;;;;;4966745;28;19947;-87
2022/08/13 09:31:08;;;;;;;;;;;;;;;;;;4970285;28;19910;-88
2022/08/13 09:33:38;;;;;;;;;;;;;;;;;;4965367;28;19922;-87
2022/08/13 09:36:03;;;;;;;;;;;;;;;;;;4969925;28;20141;-88
2022/08/13 09:38:28;;;;;;;;;;;;;;;;;;4971575;28;20048;-87
2022/08/13 09:40:54;;;;;;;;;;;;;;;;;;4967538;28;20384;-87
2022/08/13 09:43:20;;;;;;;;;;;;;;;;;;4966297;28;19936;-87
2022/08/13 09:45:48;;;;;;;;;;;;;;;;;;4969486;28;20369;-88
2022/08/13 09:48:15;;;;;;;;;;;;;;;;;;4962073;28;19921;-87
2022/08/13 09:50:41;;;;;;;;;;;;;;;;;;4962294;28;19914;-87
2022/08/13 09:53:06;;;;;;;;;;;;;;;;;;4966718;28;19949;-87
2022/08/13 09:55:33;;;;;;;;;;;;;;;;;;4969270;28;20432;-87
2022/08/13 09:57:59;;;;;;;;;;;;;;;;;;4967884;28;20369;-87
2022/08/13 10:00:27;;;;;;;;;;;;;;;;;;4988033;23;20843;-86
2022/08/13 10:02:56;;;;;;;;;;;;;;;;;;4996700;28;20314;-86
2022/08/13 10:05:21;;;;;;;;;;;;;;;;;;4995008;28;21303;-85
2022/08/13 10:07:46;;;;;;;;;;;;;;;;;;4991343;28;19956;-86
2022/08/13 10:10:11;;;;;;;;;;;;;;;;;;4994013;28;19984;-85
2022/08/13 10:12:37;;;;;;;;;;;;;;;;;;4985670;28;19921;-84
2022/08/13 10:15:02;;;;;;;;;;;;;;;;;;4981276;28;19921;-85
2022/08/13 10:17:27;;;;;;;;;;;;;;;;;;4986728;28;19960;-85
2022/08/13 10:19:53;;;;;;;;;;;;;;;;;;4984578;28;20504;-85
2022/08/13 10:22:19;;;;;;;;;;;;;;;;;;4983722;28;19914;-86
2022/08/13 10:24:44;;;;;;;;;;;;;;;;;;4980560;28;20338;-84
2022/08/13 10:27:09;;;;;;;;;;;;;;;;;;4984913;28;19937;-85
2022/08/13 10:29:35;;;;;;;;;;;;;;;;;;4981207;28;19968;-85
2022/08/13 10:32:00;;;;;;;;;;;;;;;;;;4984306;28;19918;-86
2022/08/13 10:34:25;;;;;;;;;;;;;;;;;;4984035;28;20441;-86
2022/08/13 10:36:50;;;;;;;;;;;;;;;;;;4982266;28;20292;-85
2022/08/13 10:39:15;;;;;;;;;;;;;;;;;;4986144;28;19929;-85
2022/08/13 10:41:44;;;;;;;;;;;;;;;;;;4987150;28;19914;-86
2022/08/13 10:44:10;;;;;;;;;;;;;;;;;;4987998;28;19968;-86
2022/08/13 10:46:35;;;;;;;;;;;;;;;;;;4983474;28;20009;-85
2022/08/13 10:49:00;;;;;;;;;;;;;;;;;;4980680;28;19924;-84
2022/08/13 10:51:26;;;;;;;;;;;;;;;;;;4988933;28;19918;-85
2022/08/13 10:54:00;;;;;;;;;;;;;;;;;;4986083;28;19984;-85
2022/08/13 10:56:27;;;;;;;;;;;;;;;;;;4981075;28;19980;-84
2022/08/13 10:58:52;;;;;;;;;;;;;;;;;;4985583;28;19920;-85
2022/08/13 11:01:20;;;;;;;;;;;;;;;;;;4977644;28;20367;-84
2022/08/13 11:06:42;;;;;;;;;;;;;;;;;;4948558;28;20376;-85
2022/08/13 11:09:49;;;;;;;;;;;;;;;;;;4982434;28;19918;-88
2022/08/13 11:11:55;;;;;;;;;;;;;;;;;;4978466;28;19913;-87
2022/08/13 11:14:21;;;;;;;;;;;;;;;;;;4982461;28;19936;-87
2022/08/13 11:19:20;;;;;;;;;;;;;;;;;;4977885;28;20279;-87
2022/08/13 11:21:46;;;;;;;;;;;;;;;;;;4983706;28;20261;-87
2022/08/13 11:24:11;;;;;;;;;;;;;;;;;;4984338;28;20009;-87
2022/08/13 11:26:36;;;;;;;;;;;;;;;;;;4975194;28;20033;-87
2022/08/13 11:29:01;;;;;;;;;;;;;;;;;;4981486;28;19967;-87
2022/08/13 11:31:26;;;;;;;;;;;;;;;;;;4991349;28;19909;-88
2022/08/13 11:33:52;;;;;;;;;;;;;;;;;;4982027;28;19968;-87
2022/08/13 11:36:17;;;;;;;;;;;;;;;;;;4982911;28;20168;-87
2022/08/13 11:38:42;;;;;;;;;;;;;;;;;;4986570;28;19952;-88
2022/08/13 11:41:08;;;;;;;;;;;;;;;;;;4979881;28;19922;-88
2022/08/13 11:43:33;;;;;;;;;;;;;;;;;;4978575;28;20327;-88
2022/08/13 11:45:58;;;;;;;;;;;;;;;;;;4982975;28;19921;-86
2022/08/13 11:48:23;;;;;;;;;;;;;;;;;;4985088;28;19920;-88
2022/08/13 11:50:48;;;;;;;;;;;;;;;;;;4980405;28;20466;-87
2022/08/13 11:53:13;;;;;;;;;;;;;;;;;;4972346;28;19917;-88
2022/08/13 11:55:39;;;;;;;;;;;;;;;;;;4976568;28;20399;-87
2022/08/13 11:58:05;;;;;;;;;;;;;;;;;;4991803;28;19914;-88
2022/08/13 12:00:30;;;;;;;;;;;;;;;;;;4975325;28;20165;-87
2022/08/13 12:02:55;;;;;;;;;;;;;;;;;;4982872;28;19941;-87
2022/08/13 12:05:20;;;;;;;;;;;;;;;;;;4975205;28;20427;-87
2022/08/13 12:07:45;;;;;;;;;;;;;;;;;;4987766;28;19976;-87
2022/08/13 12:10:11;;;;;;;;;;;;;;;;;;4978052;28;19918;-88
2022/08/13 12:12:36;;;;;;;;;;;;;;;;;;4979661;28;19918;-87
2022/08/13 12:15:01;;;;;;;;;;;;;;;;;;4982396;28;19918;-88
2022/08/13 12:17:27;;;;;;;;;;;;;;;;;;4992458;28;20061;-87
2022/08/13 12:19:52;;;;;;;;;;;;;;;;;;4983935;28;19957;-87
2022/08/13 12:22:17;;;;;;;;;;;;;;;;;;5004105;28;19916;-87
2022/08/13 12:24:43;;;;;;;;;;;;;;;;;;4987370;28;19928;-87
2022/08/13 12:27:08;;;;;;;;;;;;;;;;;;4987563;28;20196;-87
2022/08/13 12:29:33;;;;;;;;;;;;;;;;;;4980444;28;19921;-87
2022/08/13 12:31:58;;;;;;;;;;;;;;;;;;4979625;28;19926;-88
2022/08/13 12:34:23;;;;;;;;;;;;;;;;;;4980883;28;19988;-88
2022/08/13 12:36:48;;;;;;;;;;;;;;;;;;4974432;28;19926;-87
2022/08/13 12:39:14;;;;;;;;;;;;;;;;;;4979279;28;19921;-87
2022/08/13 12:41:39;;;;;;;;;;;;;;;;;;4988283;28;20052;-88
2022/08/13 12:44:04;;;;;;;;;;;;;;;;;;4986580;28;19909;-91
2022/08/13 12:46:29;;;;;;;;;;;;;;;;;;4985719;28;20175;-90
2022/08/13 12:48:54;;;;;;;;;;;;;;;;;;4982860;28;19914;-88
2022/08/13 16:15:20;;;;;;;;;;;;;;;;;;4382956;28;15840053;-88
2022/08/13 16:17:45;;;;;;;;;;;;;;;;;;4923961;29;20483;-87
2022/08/13 16:20:10;;;;;;;;;;;;;;;;;;4933695;29;20428;-86
2022/08/13 16:22:35;;;;;;;;;;;;;;;;;;4928339;29;19966;-86
2022/08/13 16:25:01;;;;;;;;;;;;;;;;;;4913153;29;19923;-87
2022/08/13 16:27:26;;;;;;;;;;;;;;;;;;4912158;29;20308;-85
2022/08/13 16:29:51;;;;;;;;;;;;;;;;;;4905474;29;19919;-85
2022/08/13 16:32:16;;;;;;;;;;;;;;;;;;4895389;29;20035;-86
2022/08/13 16:34:43;;;;;;;;;;;;;;;;;;4894733;29;20278;-84
2022/08/13 16:37:09;;;;;;;;;;;;;;;;;;4904147;29;19915;-84
2022/08/13 16:39:34;;;;;;;;;;;;;;;;;;4905631;29;19920;-84
2022/08/13 16:42:00;;;;;;;;;;;;;;;;;;4905258;29;19922;-84
2022/08/13 16:44:25;;;;;;;;;;;;;;;;;;4904922;29;20372;-86
2022/08/13 16:46:50;;;;;;;;;;;;;;;;;;4902922;29;19915;-84
2022/08/13 16:49:16;;;;;;;;;;;;;;;;;;4905969;29;19919;-85
2022/08/13 16:51:41;;;;;;;;;;;;;;;;;;4898233;29;19963;-85
2022/08/13 16:54:06;;;;;;;;;;;;;;;;;;4903412;29;19915;-85
2022/08/13 16:56:32;;;;;;;;;;;;;;;;;;4904900;29;19962;-84
2022/08/13 16:58:57;;;;;;;;;;;;;;;;;;4900837;29;19916;-84
2022/08/13 17:01:22;;;;;;;;;;;;;;;;;;4897685;29;19982;-85
2022/08/13 17:09:15;;;;;;;;;;;;;;;;;;4901627;29;20392;-85
2022/08/13 17:11:41;;;;;;;;;;;;;;;;;;4900353;29;19923;-84
2022/08/13 17:14:06;;;;;;;;;;;;;;;;;;4897875;29;20180;-84
2022/08/13 17:16:31;;;;;;;;;;;;;;;;;;4920558;29;19915;-85
2022/08/13 17:19:00;;;;;;;;;;;;;;;;;;4904652;29;19923;-85
2022/08/13 17:21:30;;;;;;;;;;;;;;;;;;4903655;29;20362;-84
2022/08/13 17:23:58;;;;;;;;;;;;;;;;;;4900854;29;20009;-85
2022/08/13 17:26:23;;;;;;;;;;;;;;;;;;4898690;29;19916;-85
2022/08/13 17:28:48;;;;;;;;;;;;;;;;;;4902165;29;20385;-84
2022/08/13 17:31:15;;;;;;;;;;;;;;;;;;4914880;29;19938;-84
2022/08/13 17:33:41;;;;;;;;;;;;;;;;;;4907521;29;19970;-83
2022/08/13 17:36:07;;;;;;;;;;;;;;;;;;4903469;29;19923;-83
2022/08/13 17:38:32;;;;;;;;;;;;;;;;;;4902575;29;20006;-82
2022/08/13 17:40:57;;;;;;;;;;;;;;;;;;4899524;29;19915;-83
2022/08/13 17:43:22;;;;;;;;;;;;;;;;;;4897762;29;19971;-82
2022/08/13 17:45:47;;;;;;;;;;;;;;;;;;4896891;29;19922;-83
2022/08/13 17:48:13;;;;;;;;;;;;;;;;;;4907393;29;19967;-83
2022/08/13 17:50:39;;;;;;;;;;;;;;;;;;4901186;29;20453;-83
2022/08/13 17:53:04;;;;;;;;;;;;;;;;;;4901121;29;20184;-83
2022/08/13 17:55:29;;;;;;;;;;;;;;;;;;4897559;29;19926;-83
2022/08/13 17:57:55;;;;;;;;;;;;;;;;;;4896843;29;19938;-83
2022/08/13 18:00:20;;;;;;;;;;;;;;;;;;4905795;29;19915;-84
2022/08/13 18:02:45;;;;;;;;;;;;;;;;;;4904101;29;19922;-84
2022/08/13 18:05:10;;;;;;;;;;;;;;;;;;4907383;29;20403;-84
2022/08/13 18:07:36;;;;;;;;;;;;;;;;;;4903178;29;20381;-83
2022/08/13 18:10:02;;;;;;;;;;;;;;;;;;4909705;29;20193;-83
2022/08/13 18:12:27;;;;;;;;;;;;;;;;;;4897000;29;20353;-82
2022/08/13 18:14:53;;;;;;;;;;;;;;;;;;4898333;29;19978;-83
2022/08/13 18:17:18;;;;;;;;;;;;;;;;;;4896306;29;19971;-83
2022/08/13 18:19:43;;;;;;;;;;;;;;;;;;4896177;29;19930;-83
2022/08/13 18:22:08;;;;;;;;;;;;;;;;;;4896588;29;19915;-82
2022/08/13 18:24:33;;;;;;;;;;;;;;;;;;4903894;29;19970;-83
2022/08/13 18:26:58;;;;;;;;;;;;;;;;;;4905714;29;20396;-83
2022/08/13 18:29:24;;;;;;;;;;;;;;;;;;4896693;29;19965;-83
2022/08/13 18:31:51;;;;;;;;;;;;;;;;;;4901629;29;19915;-83
2022/08/13 18:34:16;;;;;;;;;;;;;;;;;;4902276;29;19919;-83
2022/08/13 18:36:41;;;;;;;;;;;;;;;;;;4901923;29;19983;-84
2022/08/13 18:39:07;;;;;;;;;;;;;;;;;;4897972;29;20002;-83
2022/08/13 18:41:32;;;;;;;;;;;;;;;;;;4902048;29;19915;-83
2022/08/13 18:43:57;;;;;;;;;;;;;;;;;;4905085;29;19915;-83
2022/08/13 18:46:22;;;;;;;;;;;;;;;;;;4893862;29;19923;-84
2022/08/13 18:48:48;;;;;;;;;;;;;;;;;;4896026;29;19919;-84
2022/08/13 18:51:13;;;;;;;;;;;;;;;;;;4895413;29;19923;-84
2022/08/13 18:53:38;;;;;;;;;;;;;;;;;;4905739;29;19944;-84
2022/08/13 18:56:03;;;;;;;;;;;;;;;;;;4897700;29;20385;-84
2022/08/13 18:58:28;;;;;;;;;;;;;;;;;;4900493;29;20281;-84
2022/08/13 19:00:56;;;;;;;;;;;;;;;;;;4896104;29;19916;-84
2022/08/13 19:03:23;;;;;;;;;;;;;;;;;;4896129;29;19915;-84
2022/08/13 19:05:48;;;;;;;;;;;;;;;;;;4896451;29;19950;-84
2022/08/13 19:08:13;;;;;;;;;;;;;;;;;;4899643;29;19974;-84
2022/08/13 19:10:38;;;;;;;;;;;;;;;;;;4905588;29;19972;-84
2022/08/13 19:13:04;;;;;;;;;;;;;;;;;;4896054;29;20005;-84
2022/08/13 19:15:30;;;;;;;;;;;;;;;;;;4893782;29;19979;-84
2022/08/13 19:17:55;;;;;;;;;;;;;;;;;;4894657;29;19915;-84
2022/08/13 19:20:20;;;;;;;;;;;;;;;;;;4899548;29;19915;-84
2022/08/13 19:22:45;;;;;;;;;;;;;;;;;;4905721;29;20432;-84
2022/08/13 19:25:11;;;;;;;;;;;;;;;;;;4895033;29;19915;-84
2022/08/13 19:27:36;;;;;;;;;;;;;;;;;;4895085;29;19946;-84
2022/08/13 19:30:02;;;;;;;;;;;;;;;;;;4897081;29;20002;-84
2022/08/13 19:32:27;;;;;;;;;;;;;;;;;;4904102;29;19919;-84
2022/08/13 19:34:53;;;;;;;;;;;;;;;;;;4906435;29;19946;-84
2022/08/13 19:37:20;;;;;;;;;;;;;;;;;;4898066;29;19916;-84
2022/08/13 19:39:45;;;;;;;;;;;;;;;;;;4900942;29;20042;-84
2022/08/13 19:42:11;;;;;;;;;;;;;;;;;;4907122;29;19990;-84
2022/08/13 19:44:36;;;;;;;;;;;;;;;;;;4898161;29;20160;-83
2022/08/13 19:47:02;;;;;;;;;;;;;;;;;;4900671;29;19920;-83
2022/08/13 19:49:28;;;;;;;;;;;;;;;;;;4894234;29;19934;-84
2022/08/13 19:51:54;;;;;;;;;;;;;;;;;;4894783;29;19919;-84
2022/08/13 19:54:20;;;;;;;;;;;;;;;;;;4894949;29;19916;-84
2022/08/13 19:56:48;;;;;;;;;;;;;;;;;;4895420;29;19916;-84
2022/08/13 19:59:13;;;;;;;;;;;;;;;;;;4900889;29;19922;-84
2022/08/13 20:01:40;;;;;;;;;;;;;;;;;;4892585;29;19915;-83
2022/08/13 20:04:06;;;;;;;;;;;;;;;;;;4898574;29;20022;-83
2022/08/13 20:06:31;;;;;;;;;;;;;;;;;;4909017;29;20409;-83
2022/08/13 20:08:56;;;;;;;;;;;;;;;;;;4898136;29;19926;-83
2022/08/13 20:11:21;;;;;;;;;;;;;;;;;;4895139;29;20449;-83
2022/08/13 20:13:46;;;;;;;;;;;;;;;;;;4895477;29;19920;-83
2022/08/13 20:16:12;;;;;;;;;;;;;;;;;;4891897;29;19920;-83
2022/08/13 20:18:37;;;;;;;;;;;;;;;;;;4897680;29;19971;-83
2022/08/13 20:21:02;;;;;;;;;;;;;;;;;;4896673;29;20060;-83
2022/08/13 20:23:28;;;;;;;;;;;;;;;;;;4898414;29;19947;-83
2022/08/13 20:25:54;;;;;;;;;;;;;;;;;;4907450;29;19920;-83
2022/08/13 20:28:19;;;;;;;;;;;;;;;;;;4896060;29;20005;-83
2022/08/13 20:30:44;;;;;;;;;;;;;;;;;;4895987;29;19967;-84